createdAt,value
2018-11-29T00:01:32.982Z,90.30
2018-11-29T00:04:05.177Z,90.10
2018-11-29T00:06:36.793Z,90.20
2018-11-29T00:09:10.754Z,90.30
2018-11-29T00:11:42.910Z,90.40
2018-11-29T00:14:14.953Z,90.50
2018-11-29T00:16:46.852Z,90.60
2018-11-29T00:19:18.789Z,90.50
2018-11-29T00:21:50.542Z,90.80
2018-11-29T00:24:21.948Z,90.80
2018-11-29T00:26:53.703Z,90.90
2018-11-29T00:29:25.235Z,91.10
2018-11-29T00:31:56.767Z,91.10
2018-11-29T00:34:28.105Z,91.00
2018-11-29T00:36:59.388Z,91.20
2018-11-29T00:39:31.045Z,91.50
2018-11-29T00:42:02.500Z,91.80
2018-11-29T00:44:34.308Z,91.90
2018-11-29T00:47:05.819Z,92.00
2018-11-29T00:49:37.149Z,92.10
2018-11-29T00:52:08.712Z,92.30
2018-11-29T00:54:40.054Z,92.40
2018-11-29T00:57:11.278Z,92.30
2018-11-29T00:59:42.503Z,92.60
2018-11-29T01:02:13.866Z,92.60
2018-11-29T01:04:45.713Z,92.60
2018-11-29T01:07:17.042Z,92.60
2018-11-29T01:09:48.437Z,92.70
2018-11-29T01:12:19.454Z,92.90
2018-11-29T01:14:50.924Z,93.00
2018-11-29T01:17:22.215Z,93.00
2018-11-29T01:19:53.477Z,92.70
2018-11-29T01:22:24.848Z,92.40
2018-11-29T01:24:56.636Z,92.40
2018-11-29T01:27:28.201Z,92.20
2018-11-29T01:29:59.555Z,92.10
2018-11-29T01:32:31.018Z,92.10
2018-11-29T01:35:02.467Z,91.90
2018-11-29T01:37:34.186Z,91.60
2018-11-29T01:40:06.707Z,92.00
2018-11-29T01:42:38.091Z,92.40
2018-11-29T01:45:09.531Z,92.60
2018-11-29T01:47:40.987Z,92.40
2018-11-29T01:50:12.684Z,92.10
2018-11-29T01:52:44.040Z,92.10
2018-11-29T01:55:15.646Z,92.00
2018-11-29T01:57:46.990Z,92.10
2018-11-29T02:00:19.045Z,92.10
2018-11-29T02:02:52.120Z,92.20
2018-11-29T02:05:23.868Z,92.30
2018-11-29T02:07:55.154Z,92.40
2018-11-29T02:10:28.145Z,92.20
2018-11-29T02:12:59.611Z,91.50
2018-11-29T02:15:31.069Z,91.20
2018-11-29T02:18:02.310Z,90.90
2018-11-29T02:20:33.938Z,90.80
2018-11-29T02:23:05.291Z,91.20
2018-11-29T02:25:36.694Z,91.70
2018-11-29T02:28:08.033Z,91.90
2018-11-29T02:30:39.402Z,91.80
2018-11-29T02:33:10.911Z,91.70
2018-11-29T02:35:42.154Z,91.60
2018-11-29T02:38:13.650Z,91.60
2018-11-29T02:40:44.877Z,91.70
2018-11-29T02:43:16.268Z,91.60
2018-11-29T02:45:47.556Z,91.00
2018-11-29T02:48:18.838Z,90.90
2018-11-29T02:50:50.167Z,91.00
2018-11-29T02:53:21.590Z,91.30
2018-11-29T02:55:53.365Z,91.40
2018-11-29T02:58:24.622Z,91.40
2018-11-29T03:00:56.065Z,91.30
2018-11-29T03:03:27.544Z,91.30
2018-11-29T03:05:59.268Z,91.40
2018-11-29T03:08:30.415Z,91.00
2018-11-29T03:11:02.158Z,91.00
2018-11-29T03:13:33.717Z,91.20
2018-11-29T03:16:05.250Z,91.40
2018-11-29T03:18:36.365Z,91.40
2018-11-29T03:21:07.734Z,91.20
2018-11-29T03:23:38.886Z,90.90
2018-11-29T03:26:10.347Z,90.60
2018-11-29T03:28:41.918Z,90.50
2018-11-29T03:31:13.273Z,90.70
2018-11-29T03:33:44.688Z,90.80
2018-11-29T03:36:16.392Z,90.70
2018-11-29T03:38:48.010Z,91.00
2018-11-29T03:41:19.398Z,90.70
2018-11-29T03:43:50.601Z,90.40
2018-11-29T03:46:22.034Z,90.10
2018-11-29T03:48:53.309Z,90.10
2018-11-29T03:51:24.846Z,89.90
2018-11-29T03:53:56.174Z,88.70
2018-11-29T03:56:27.465Z,88.80
2018-11-29T03:58:58.898Z,90.10
2018-11-29T04:01:30.552Z,89.80
2018-11-29T04:04:01.875Z,89.90
2018-11-29T04:06:33.383Z,89.50
2018-11-29T04:09:07.654Z,88.80
2018-11-29T04:11:38.926Z,89.10
2018-11-29T04:14:10.464Z,88.00
2018-11-29T04:16:42.177Z,87.70
2018-11-29T04:19:13.289Z,87.60
2018-11-29T04:21:44.700Z,87.90
2018-11-29T04:24:16.088Z,88.80
2018-11-29T04:26:47.824Z,87.20
2018-11-29T04:29:19.375Z,86.20
2018-11-29T04:31:50.953Z,85.00
2018-11-29T04:34:22.392Z,83.90
2018-11-29T04:36:54.022Z,83.00
2018-11-29T04:39:25.427Z,83.20
2018-11-29T04:41:56.633Z,82.60
2018-11-29T04:44:28.178Z,83.10
2018-11-29T04:46:59.546Z,81.80
2018-11-29T04:49:31.000Z,82.40
2018-11-29T04:52:02.146Z,82.50
2018-11-29T04:54:33.361Z,82.10
2018-11-29T04:57:04.782Z,82.00
2018-11-29T04:59:36.194Z,81.40
2018-11-29T05:02:08.333Z,81.40
2018-11-29T05:04:39.581Z,81.80
2018-11-29T05:07:11.181Z,81.20
2018-11-29T05:09:42.675Z,81.80
2018-11-29T05:12:14.101Z,82.20
2018-11-29T05:14:45.395Z,82.50
2018-11-29T05:17:16.567Z,83.10
2018-11-29T05:19:48.140Z,83.20
2018-11-29T05:22:19.552Z,82.60
2018-11-29T05:24:51.041Z,83.20
2018-11-29T05:27:22.318Z,83.20
2018-11-29T05:29:53.593Z,82.80
2018-11-29T05:32:24.983Z,82.90
2018-11-29T05:34:56.502Z,84.00
2018-11-29T05:37:28.058Z,84.30
2018-11-29T05:40:00.331Z,84.60
2018-11-29T05:42:32.009Z,84.80
2018-11-29T05:45:03.801Z,84.40
2018-11-29T05:47:35.454Z,83.80
2018-11-29T05:50:11.902Z,84.10
2018-11-29T05:52:43.621Z,84.50
2018-11-29T05:55:15.039Z,84.70
2018-11-29T05:57:46.320Z,84.60
2018-11-29T06:00:17.832Z,84.50
2018-11-29T06:02:49.155Z,84.50
2018-11-29T06:05:20.682Z,85.00
2018-11-29T06:07:52.251Z,85.20
2018-11-29T06:10:23.551Z,85.30
2018-11-29T06:12:55.422Z,85.40
2018-11-29T06:15:27.091Z,85.60
2018-11-29T06:17:58.658Z,85.50
2018-11-29T06:20:30.316Z,85.50
2018-11-29T06:23:02.161Z,86.10
2018-11-29T06:25:33.817Z,86.20
2018-11-29T06:28:05.371Z,86.50
2018-11-29T06:30:37.302Z,85.70
2018-11-29T06:33:08.988Z,87.00
2018-11-29T06:35:40.382Z,86.50
2018-11-29T06:38:11.706Z,85.40
2018-11-29T06:40:43.329Z,85.00
2018-11-29T06:43:14.891Z,84.70
2018-11-29T06:45:46.850Z,85.80
2018-11-29T06:48:18.416Z,84.10
2018-11-29T06:50:49.866Z,83.80
2018-11-29T06:53:26.123Z,88.90
2018-11-29T06:55:57.580Z,91.90
2018-11-29T06:58:29.175Z,93.30
2018-11-29T07:01:00.594Z,90.50
2018-11-29T07:03:31.816Z,84.20
2018-11-29T07:06:03.193Z,81.10
2018-11-29T07:08:35.045Z,81.60
2018-11-29T07:11:06.887Z,79.80
2018-11-29T07:13:38.346Z,78.80
2018-11-29T07:16:09.911Z,78.70
2018-11-29T07:18:41.530Z,79.10
2018-11-29T07:21:29.071Z,79.10
2018-11-29T07:24:00.403Z,77.90
2018-11-29T07:26:31.544Z,78.50
2018-11-29T07:29:03.063Z,76.70
2018-11-29T07:31:34.457Z,75.30
2018-11-29T07:34:06.145Z,75.00
2018-11-29T07:36:37.295Z,76.00
2018-11-29T07:39:10.877Z,76.30
2018-11-29T07:41:42.450Z,74.80
2018-11-29T07:44:14.167Z,76.50
2018-11-29T07:46:45.493Z,74.20
2018-11-29T07:49:16.540Z,74.30
2018-11-29T07:51:47.910Z,74.40
2018-11-29T07:54:19.441Z,75.10
2018-11-29T07:56:50.671Z,76.30
2018-11-29T07:59:22.090Z,76.60
2018-11-29T08:01:53.513Z,74.70
2018-11-29T08:04:25.035Z,74.70
2018-11-29T08:06:56.499Z,74.40
2018-11-29T08:09:27.880Z,73.80
2018-11-29T08:11:59.496Z,72.90
2018-11-29T08:14:31.264Z,71.10
2018-11-29T08:17:02.856Z,70.50
2018-11-29T08:19:34.341Z,70.20
2018-11-29T08:22:05.897Z,69.80
2018-11-29T08:24:37.336Z,68.60
2018-11-29T08:27:08.807Z,66.80
2018-11-29T08:29:40.283Z,66.40
2018-11-29T08:32:11.907Z,64.00
2018-11-29T08:34:43.101Z,63.00
2018-11-29T08:37:15.645Z,61.40
2018-11-29T08:39:46.794Z,63.40
2018-11-29T08:42:18.073Z,64.30
2018-11-29T08:44:50.304Z,64.30
2018-11-29T08:47:21.952Z,62.50
2018-11-29T08:49:53.557Z,61.00
2018-11-29T08:52:25.043Z,60.80
2018-11-29T08:54:56.446Z,59.80
2018-11-29T08:57:28.082Z,61.10
2018-11-29T08:59:59.308Z,60.00
2018-11-29T09:02:30.527Z,58.00
2018-11-29T09:05:01.878Z,58.10
2018-11-29T09:07:33.315Z,58.20
2018-11-29T09:10:04.945Z,57.30
2018-11-29T09:12:36.135Z,57.20
2018-11-29T09:15:10.007Z,57.80
2018-11-29T09:17:41.335Z,57.50
2018-11-29T09:20:18.753Z,59.10
2018-11-29T09:22:50.149Z,59.30
2018-11-29T09:25:23.564Z,59.90
2018-11-29T09:27:55.081Z,59.80
2018-11-29T09:30:27.164Z,59.50
2018-11-29T09:32:58.467Z,60.40
2018-11-29T09:35:29.851Z,61.00
2018-11-29T09:38:01.382Z,61.50
2018-11-29T09:40:32.786Z,60.90
2018-11-29T09:43:04.362Z,62.60
2018-11-29T09:45:35.889Z,61.00
2018-11-29T09:48:07.479Z,60.00
2018-11-29T09:50:38.808Z,60.30
2018-11-29T09:53:10.449Z,61.90
2018-11-29T09:55:41.934Z,61.50
2018-11-29T09:58:13.475Z,63.00
2018-11-29T10:00:44.947Z,63.50
2018-11-29T10:03:17.609Z,64.20
2018-11-29T10:05:49.716Z,63.50
2018-11-29T10:08:26.032Z,62.90
2018-11-29T10:10:52.307Z,63.00
2018-11-29T10:13:23.758Z,60.30
2018-11-29T10:15:55.563Z,62.50
2018-11-29T10:18:26.898Z,61.80
2018-11-29T10:20:58.220Z,62.80
2018-11-29T10:23:29.644Z,61.40
2018-11-29T10:26:01.298Z,61.50
2018-11-29T10:28:32.794Z,61.60
2018-11-29T10:31:05.852Z,61.80
2018-11-29T10:33:37.386Z,60.30
2018-11-29T10:36:08.873Z,60.20
2018-11-29T10:38:40.374Z,59.70
2018-11-29T10:41:12.913Z,58.50
2018-11-29T10:43:43.573Z,57.70
2018-11-29T10:46:15.804Z,57.70
2018-11-29T10:48:46.105Z,58.60
2018-11-29T10:51:17.797Z,59.30
2018-11-29T10:53:49.011Z,59.80
2018-11-29T10:56:20.348Z,59.50
2018-11-29T10:58:51.630Z,59.20
2018-11-29T11:01:28.344Z,58.40
2018-11-29T11:04:00.037Z,57.70
2018-11-29T11:06:31.430Z,59.20
2018-11-29T11:09:02.552Z,58.40
2018-11-29T11:11:34.270Z,58.90
2018-11-29T11:14:06.146Z,57.90
2018-11-29T11:16:37.980Z,57.10
2018-11-29T11:19:09.842Z,58.00
2018-11-29T11:21:41.215Z,58.70
2018-11-29T11:24:12.762Z,59.50
2018-11-29T11:26:44.232Z,61.40
2018-11-29T11:29:15.523Z,61.30
2018-11-29T11:31:53.579Z,61.10
2018-11-29T11:34:24.827Z,62.60
2018-11-29T11:36:56.127Z,62.20
2018-11-29T11:39:27.643Z,62.40
2018-11-29T11:41:58.834Z,61.80
2018-11-29T11:44:30.420Z,62.10
2018-11-29T11:47:01.771Z,63.50
2018-11-29T11:49:33.200Z,62.90
2018-11-29T11:52:04.761Z,63.40
2018-11-29T11:54:36.076Z,62.30
2018-11-29T11:57:08.039Z,61.90
2018-11-29T11:59:39.619Z,61.90
2018-11-29T12:02:11.288Z,62.50
2018-11-29T12:04:42.846Z,62.30
2018-11-29T12:07:13.836Z,63.00
2018-11-29T12:09:45.958Z,62.60
2018-11-29T12:12:17.315Z,61.60
2018-11-29T12:14:48.603Z,62.40
2018-11-29T12:17:20.197Z,60.90
2018-11-29T12:19:51.290Z,60.90
2018-11-29T12:22:22.594Z,61.60
2018-11-29T12:24:54.269Z,61.90
2018-11-29T12:27:25.570Z,62.30
2018-11-29T12:29:57.054Z,61.30
2018-11-29T12:32:28.608Z,63.50
2018-11-29T12:35:00.040Z,61.90
2018-11-29T12:37:31.363Z,62.10
2018-11-29T12:40:02.711Z,64.60
2018-11-29T12:42:34.100Z,64.20
2018-11-29T12:45:06.452Z,64.00
2018-11-29T12:47:37.903Z,64.40
2018-11-29T12:50:14.990Z,66.40
2018-11-29T12:52:47.240Z,66.50
2018-11-29T12:55:19.896Z,66.60
2018-11-29T12:58:04.382Z,65.90
2018-11-29T13:00:24.269Z,66.20
2018-11-29T13:02:59.606Z,67.60
2018-11-29T13:05:31.222Z,68.00
2018-11-29T13:08:02.933Z,66.60
2018-11-29T13:10:34.585Z,67.40
2018-11-29T13:13:06.582Z,67.30
2018-11-29T13:15:38.122Z,66.70
2018-11-29T13:18:10.395Z,67.80
2018-11-29T13:20:41.908Z,69.20
2018-11-29T13:23:13.123Z,69.70
2018-11-29T13:25:44.678Z,70.00
2018-11-29T13:28:16.087Z,71.40
2018-11-29T13:30:47.678Z,72.10
2018-11-29T13:33:19.319Z,72.70
2018-11-29T13:35:50.747Z,73.70
2018-11-29T13:38:22.968Z,74.30
2018-11-29T13:40:54.387Z,73.70
2018-11-29T13:43:25.741Z,74.50
2018-11-29T13:45:56.982Z,74.80
2018-11-29T13:48:28.422Z,73.80
2018-11-29T13:50:59.682Z,73.20
2018-11-29T13:53:30.723Z,74.20
2018-11-29T13:56:02.517Z,75.30
2018-11-29T13:58:33.794Z,76.80
2018-11-29T14:01:05.335Z,77.00
2018-11-29T14:03:36.908Z,76.60
2018-11-29T14:06:08.561Z,77.20
2018-11-29T14:08:39.960Z,77.40
2018-11-29T14:11:11.136Z,78.00
2018-11-29T14:13:42.561Z,78.00
2018-11-29T14:16:14.232Z,78.60
2018-11-29T14:18:45.752Z,79.20
2018-11-29T14:21:17.399Z,79.60
2018-11-29T14:23:49.111Z,79.60
2018-11-29T14:26:20.661Z,79.10
2018-11-29T14:28:52.159Z,78.30
2018-11-29T14:31:23.670Z,78.10
2018-11-29T14:33:54.949Z,78.80
2018-11-29T14:36:26.514Z,79.00
2018-11-29T14:38:58.015Z,78.90
2018-11-29T14:41:29.544Z,79.30
2018-11-29T14:44:01.043Z,79.70
2018-11-29T14:46:32.520Z,79.80
2018-11-29T14:49:03.853Z,80.20
2018-11-29T14:51:35.179Z,80.50
2018-11-29T14:54:06.968Z,81.00
2018-11-29T14:56:38.496Z,81.30
2018-11-29T14:59:09.752Z,81.80
2018-11-29T15:01:41.427Z,82.00
2018-11-29T15:04:12.911Z,82.30
2018-11-29T15:06:44.244Z,83.10
2018-11-29T15:09:15.358Z,83.20
2018-11-29T15:11:47.120Z,84.00
2018-11-29T15:14:18.641Z,84.40
2018-11-29T15:16:50.613Z,84.60
2018-11-29T15:19:24.095Z,85.10
2018-11-29T15:22:00.009Z,85.90
2018-11-29T15:24:35.949Z,86.40
2018-11-29T15:27:07.334Z,87.00
2018-11-29T15:29:39.137Z,87.20
2018-11-29T15:32:10.686Z,87.70
2018-11-29T15:34:42.340Z,88.30
2018-11-29T15:37:13.786Z,88.70
2018-11-29T15:39:45.207Z,89.10
2018-11-29T15:42:16.608Z,90.60
2018-11-29T15:44:47.877Z,90.10
2018-11-29T15:47:19.139Z,90.30
2018-11-29T15:49:50.799Z,90.60
2018-11-29T15:52:22.371Z,91.40
2018-11-29T15:54:53.702Z,92.10
2018-11-29T15:57:25.262Z,92.50
2018-11-29T15:59:56.444Z,93.00
2018-11-29T16:02:27.952Z,93.30
2018-11-29T16:04:59.557Z,93.90
2018-11-29T16:07:31.459Z,94.40
2018-11-29T16:10:02.973Z,94.80
2018-11-29T16:12:34.457Z,95.00
2018-11-29T16:15:07.103Z,95.20
2018-11-29T16:17:38.686Z,96.70
2018-11-29T16:20:17.160Z,95.80
2018-11-29T16:22:48.093Z,95.90
2018-11-29T16:25:19.258Z,95.90
2018-11-29T16:27:50.642Z,96.00
2018-11-29T16:30:32.025Z,96.00
2018-11-29T16:33:21.075Z,96.10
2018-11-29T16:35:52.620Z,96.00
2018-11-29T16:38:24.111Z,96.10
2018-11-29T16:40:55.616Z,96.30
2018-11-29T16:43:27.156Z,96.60
2018-11-29T16:45:58.807Z,96.10
2018-11-29T16:48:30.481Z,96.30
2018-11-29T16:51:02.003Z,96.50
2018-11-29T16:53:33.421Z,96.50
2018-11-29T16:56:05.192Z,96.40
2018-11-29T16:58:36.974Z,96.50
2018-11-29T17:01:09.341Z,96.50
2018-11-29T17:03:41.050Z,96.40
2018-11-29T17:06:12.431Z,96.60
2018-11-29T17:08:43.836Z,96.60
2018-11-29T17:11:15.537Z,96.70
2018-11-29T17:13:46.757Z,96.90
2018-11-29T17:16:18.454Z,96.90
2018-11-29T17:18:50.280Z,97.00
2018-11-29T17:21:22.377Z,97.20
2018-11-29T17:23:54.127Z,97.40
2018-11-29T17:26:25.167Z,97.40
2018-11-29T17:28:57.379Z,97.60
2018-11-29T17:31:29.238Z,97.80
2018-11-29T17:34:00.154Z,97.70
2018-11-29T17:36:32.094Z,97.70
2018-11-29T17:39:03.422Z,98.10
2018-11-29T17:41:34.431Z,97.80
2018-11-29T17:44:07.526Z,97.90
2018-11-29T17:46:40.718Z,97.90
2018-11-29T17:49:11.707Z,98.20
2018-11-29T17:51:43.947Z,98.30
2018-11-29T17:54:15.664Z,98.60
2018-11-29T17:56:46.745Z,98.50
2018-11-29T17:59:17.677Z,98.40
2018-11-29T18:01:48.654Z,98.60
2018-11-29T18:04:22.270Z,98.60
2018-11-29T18:06:53.339Z,98.80
2018-11-29T18:09:24.292Z,99.00
2018-11-29T18:11:55.207Z,99.10
2018-11-29T18:14:26.059Z,99.00
2018-11-29T18:16:57.339Z,99.00
2018-11-29T18:19:28.240Z,99.00
2018-11-29T18:22:00.972Z,98.90
2018-11-29T18:24:32.454Z,99.00
2018-11-29T18:27:03.460Z,99.00
2018-11-29T18:29:34.592Z,99.10
2018-11-29T18:32:05.684Z,99.40
2018-11-29T18:34:37.613Z,98.90
2018-11-29T18:37:10.934Z,99.20
2018-11-29T18:39:42.143Z,99.30
2018-11-29T18:42:13.307Z,99.60
2018-11-29T18:44:45.059Z,99.50
2018-11-29T18:47:16.580Z,99.30
2018-11-29T18:49:47.517Z,99.70
2018-11-29T18:52:19.618Z,99.90
2018-11-29T18:54:50.645Z,99.90
2018-11-29T18:57:22.837Z,99.90
2018-11-29T18:59:55.109Z,99.80
2018-11-29T19:02:26.596Z,99.80
2018-11-29T19:05:00.513Z,99.90
2018-11-29T19:07:31.752Z,99.90
2018-11-29T19:10:05.470Z,99.90
2018-11-29T19:12:36.904Z,99.90
2018-11-29T19:15:13.951Z,99.90
2018-11-29T19:17:44.946Z,99.90
2018-11-29T19:20:18.166Z,99.90
2018-11-29T19:22:49.325Z,99.90
2018-11-29T19:25:21.351Z,99.90
2018-11-29T19:27:53.173Z,99.90
2018-11-29T19:30:30.136Z,99.90
2018-11-29T19:33:19.348Z,99.90
2018-11-29T19:35:55.051Z,99.90
2018-11-29T19:38:26.126Z,99.80
2018-11-29T19:40:57.707Z,99.90
2018-11-29T19:43:29.005Z,99.80
2018-11-29T19:46:01.147Z,99.80
2018-11-29T19:48:33.234Z,99.90
2018-11-29T19:51:04.396Z,99.90
2018-11-29T19:53:38.392Z,99.90
2018-11-29T19:56:10.668Z,99.90
2018-11-29T19:58:42.704Z,99.90
2018-11-29T20:01:16.463Z,99.90
2018-11-29T20:03:48.155Z,99.90
2018-11-29T20:06:24.116Z,99.90
2018-11-29T20:08:56.990Z,99.90
2018-11-29T20:11:29.467Z,99.90
2018-11-29T20:14:01.046Z,99.90
2018-11-29T20:16:33.300Z,99.90
2018-11-29T20:19:05.048Z,99.90
2018-11-29T20:21:39.290Z,99.90
2018-11-29T20:24:10.970Z,99.90
2018-11-29T20:26:42.854Z,99.90
2018-11-29T20:29:15.811Z,99.90
2018-11-29T20:31:47.438Z,99.90
2018-11-29T20:34:20.479Z,99.90
2018-11-29T20:36:53.528Z,99.90
2018-11-29T20:39:26.211Z,99.90
2018-11-29T20:41:58.660Z,99.90
2018-11-29T20:44:36.300Z,99.90
2018-11-29T20:47:09.160Z,99.90
2018-11-29T20:49:41.806Z,99.90
2018-11-29T20:52:12.805Z,99.90
2018-11-29T20:54:43.970Z,99.90
2018-11-29T20:57:16.196Z,99.90
2018-11-29T20:59:47.236Z,99.90
2018-11-29T21:02:18.404Z,99.90
2018-11-29T21:04:51.055Z,99.90
2018-11-29T21:07:22.274Z,99.90
2018-11-29T21:09:55.061Z,99.90
2018-11-29T21:12:26.347Z,99.90
2018-11-29T21:14:59.518Z,99.90
2018-11-29T21:17:31.285Z,99.90
2018-11-29T21:20:03.643Z,99.90
2018-11-29T21:22:35.295Z,99.90
2018-11-29T21:25:11.828Z,99.90
2018-11-29T21:27:43.871Z,99.90
2018-11-29T21:30:18.505Z,99.90
2018-11-29T21:32:50.509Z,99.90
2018-11-29T21:35:27.415Z,99.90
2018-11-29T21:38:00.126Z,99.90
2018-11-29T21:40:39.177Z,99.90
2018-11-29T21:43:15.334Z,99.90
2018-11-29T21:45:48.675Z,99.90
2018-11-29T21:48:21.756Z,99.90
2018-11-29T21:50:57.048Z,99.90
2018-11-29T21:53:29.852Z,99.90
2018-11-29T21:56:02.254Z,99.90
2018-11-29T21:58:35.671Z,99.90
2018-11-29T22:01:08.414Z,99.90
2018-11-29T22:03:42.095Z,99.90
2018-11-29T22:06:15.700Z,99.90
2018-11-29T22:08:55.990Z,99.90
2018-11-29T22:11:27.679Z,99.90
2018-11-29T22:14:00.228Z,99.90
2018-11-29T22:16:32.497Z,99.90
2018-11-29T22:19:05.788Z,99.90
2018-11-29T22:21:37.745Z,99.90
2018-11-29T22:24:10.531Z,99.90
2018-11-29T22:26:42.849Z,99.90
2018-11-29T22:29:14.420Z,99.90
2018-11-29T22:31:47.065Z,99.90
2018-11-29T22:34:19.248Z,99.90
2018-11-29T22:36:54.253Z,99.90
2018-11-29T22:39:27.152Z,99.90
2018-11-29T22:41:58.696Z,99.90
2018-11-29T22:44:32.363Z,99.90
2018-11-29T22:47:05.379Z,99.90
2018-11-29T22:49:37.270Z,99.90
2018-11-29T22:52:08.299Z,99.90
2018-11-29T22:54:39.519Z,99.90
2018-11-29T22:57:10.382Z,99.90
2018-11-29T22:59:41.560Z,99.90
2018-11-29T23:02:12.486Z,99.90
2018-11-29T23:04:44.405Z,99.90
2018-11-29T23:07:15.634Z,99.90
2018-11-29T23:09:47.106Z,99.90
2018-11-29T23:12:22.071Z,99.90
2018-11-29T23:14:54.552Z,99.90
2018-11-29T23:17:25.654Z,99.90
2018-11-29T23:19:56.529Z,99.90
2018-11-29T23:22:27.665Z,99.90
2018-11-29T23:24:58.525Z,99.90
2018-11-29T23:27:29.504Z,99.90
2018-11-29T23:30:00.320Z,99.90
2018-11-29T23:32:31.224Z,99.90
2018-11-29T23:35:02.407Z,99.90
2018-11-29T23:37:33.287Z,99.90
2018-11-29T23:40:04.483Z,99.90
2018-11-29T23:42:35.324Z,99.90
2018-11-29T23:45:08.927Z,99.90
2018-11-29T23:47:39.774Z,99.90
2018-11-29T23:50:26.593Z,99.90
2018-11-29T23:52:57.488Z,99.90
2018-11-29T23:55:28.459Z,99.90
2018-11-29T23:57:59.397Z,99.90
